Time;durP1;ratioP1;P1;durP2;ratioP2;P2;SDS_P1;SDS_P2;PMS_P1;PMS_P2;Temp;Humidity;BMP_temperature;BMP_pressure;BME280_temperature;BME280_humidity;BME280_pressure;Samples;Min_cycle;Max_cycle;Signal;HPM_P1;HPM_P2
2022/04/02 00:00:06;;;;;;;4.68;3.05;;;;;;;1.57;66.32;101348.75;5073430;28;20033;-44
2022/04/02 00:02:32;;;;;;;4.90;3.30;;;;;;;1.64;66.35;101372.00;5075009;28;20029;-41
2022/04/02 00:04:58;;;;;;;4.38;3.30;;;;;;;1.49;66.63;101357.25;5075019;28;20033;-43
2022/04/02 00:07:24;;;;;;;4.30;3.55;;;;;;;1.50;66.77;101365.06;5074863;28;20526;-43
2022/04/02 00:09:49;;;;;;;4.60;3.47;;;;;;;1.47;66.78;101365.31;5075193;28;20031;-41
2022/04/02 00:12:15;;;;;;;4.93;4.00;;;;;;;1.54;67.18;101373.63;5073627;28;20032;-42
2022/04/02 00:14:42;;;;;;;6.05;3.58;;;;;;;1.48;66.66;101376.75;5075248;28;20039;-41
2022/04/02 00:17:07;;;;;;;5.43;4.10;;;;;;;1.45;67.40;101371.66;5074828;28;20025;-42
2022/04/02 00:19:33;;;;;;;3.90;3.53;;;;;;;1.38;66.66;101379.22;5074897;28;20036;-42
2022/04/02 00:21:59;;;;;;;5.18;3.83;;;;;;;1.31;67.98;101377.97;5075154;28;20025;-43
2022/04/02 00:24:25;;;;;;;9.32;3.60;;;;;;;1.32;67.67;101369.94;5074856;28;20212;-41
2022/04/02 00:26:51;;;;;;;5.75;3.50;;;;;;;1.30;67.79;101373.63;5073198;28;20443;-42
2022/04/02 00:29:16;;;;;;;5.70;3.70;;;;;;;1.25;67.67;101376.59;5073313;28;20069;-41
2022/04/02 00:31:43;;;;;;;4.38;3.30;;;;;;;1.24;67.76;101374.06;5074277;28;20063;-41
2022/04/02 00:34:09;;;;;;;3.95;3.38;;;;;;;1.18;66.93;101367.41;5090850;28;20078;-42
2022/04/02 00:36:37;;;;;;;2.85;2.60;;;;;;;1.26;67.58;101375.63;5074449;28;20028;-40
2022/04/02 00:39:05;;;;;;;6.25;3.50;;;;;;;1.26;67.84;101385.38;5074903;28;20089;-40
2022/04/02 00:41:31;;;;;;;5.50;3.45;;;;;;;1.21;67.83;101374.28;5073971;28;20031;-41
2022/04/02 00:44:00;;;;;;;9.05;3.50;;;;;;;1.26;67.78;101382.75;5074075;28;20045;-41
2022/04/02 00:46:26;;;;;;;4.07;3.67;;;;;;;1.23;67.64;101378.53;5073866;28;20138;-40
2022/04/02 00:48:54;;;;;;;3.42;3.08;;;;;;;1.21;67.97;101372.50;5074106;28;20067;-40
2022/04/02 00:51:21;;;;;;;7.43;3.67;;;;;;;1.19;68.00;101385.00;5073635;28;20037;-40
2022/04/02 00:53:49;;;;;;;3.80;3.20;;;;;;;1.07;67.66;101367.34;5074072;28;20044;-41
2022/04/02 00:56:16;;;;;;;7.32;3.72;;;;;;;1.10;67.79;101388.31;5073376;28;20048;-41
2022/04/02 00:58:42;;;;;;;3.42;3.13;;;;;;;0.85;67.58;101349.50;5056004;28;20558;-41
2022/04/02 01:01:08;;;;;;;5.38;3.53;;;;;;;1.00;68.32;101381.97;5073219;28;20154;-41
2022/04/02 01:03:35;;;;;;;3.78;3.10;;;;;;;1.04;67.86;101386.94;5073510;28;20112;-41
2022/04/02 01:06:01;;;;;;;5.70;3.65;;;;;;;1.00;67.91;101380.16;5073471;28;20036;-41
2022/04/02 01:08:28;;;;;;;7.03;3.65;;;;;;;1.02;67.82;101382.69;5073374;28;20020;-42
2022/04/02 01:10:56;;;;;;;9.88;3.85;;;;;;;1.08;67.41;101384.91;5073550;28;20162;-43
2022/04/02 01:13:22;;;;;;;8.15;4.28;;;;;;;1.04;69.04;101379.00;5073525;28;20031;-41
2022/04/02 01:15:48;;;;;;;5.55;3.50;;;;;;;1.07;67.25;101388.50;5073721;28;20104;-42
2022/04/02 01:18:14;;;;;;;9.20;4.10;;;;;;;1.03;68.42;101381.75;5088877;28;20483;-41
2022/04/02 01:20:40;;;;;;;4.05;3.65;;;;;;;1.03;68.19;101395.81;5073317;28;20032;-40
2022/04/02 01:23:06;;;;;;;7.90;3.88;;;;;;;1.05;68.43;101393.06;5073707;28;20157;-41
2022/04/02 01:25:32;;;;;;;9.52;3.92;;;;;;;1.03;68.01;101392.34;5073719;28;20032;-41
2022/04/02 01:28:00;;;;;;;4.20;3.80;;;;;;;1.07;67.59;101377.94;5073903;28;20109;-41
2022/04/02 01:30:27;;;;;;;7.90;4.38;;;;;;;1.13;68.56;101391.56;5073240;28;20040;-41
2022/04/02 01:32:53;;;;;;;5.78;4.10;;;;;;;1.14;69.29;101390.59;5073354;28;20430;-41
2022/04/02 01:35:21;;;;;;;10.65;4.28;;;;;;;1.18;68.67;101375.34;5072235;28;20028;-41
2022/04/02 01:37:48;;;;;;;7.97;4.85;;;;;;;1.21;69.38;101384.88;5073484;28;20427;-40
2022/04/02 01:40:14;;;;;;;6.47;5.18;;;;;;;1.17;69.10;101384.25;5072262;28;20062;-41
2022/04/02 01:42:39;;;;;;;7.25;4.07;;;;;;;1.23;68.03;101393.56;5072311;28;20473;-41
2022/04/02 01:45:06;;;;;;;7.57;4.13;;;;;;;1.15;68.51;101370.28;5073361;28;20123;-41
2022/04/02 01:47:32;;;;;;;5.45;4.93;;;;;;;1.27;69.19;101382.63;5073112;28;20025;-42
2022/04/02 01:49:57;;;;;;;8.88;4.50;;;;;;;1.27;69.15;101380.00;5072658;28;20127;-41
2022/04/02 01:52:23;;;;;;;8.05;4.85;;;;;;;1.31;68.49;101385.91;5075734;28;20506;-43
2022/04/02 01:54:49;;;;;;;6.93;5.43;;;;;;;1.21;69.20;101377.78;5077110;28;20024;-41
2022/04/02 01:57:16;;;;;;;10.93;5.20;;;;;;;1.16;68.81;101370.16;5076550;28;20048;-44
2022/04/02 01:59:44;;;;;;;7.22;4.57;;;;;;;1.12;68.41;101379.28;5076661;28;20036;-42
2022/04/02 02:02:11;;;;;;;6.35;4.10;;;;;;;0.99;69.01;101377.63;5076734;28;20510;-43
2022/04/02 02:04:37;;;;;;;7.78;4.95;;;;;;;0.99;69.91;101378.47;5076756;28;20067;-41
2022/04/02 02:07:04;;;;;;;7.97;4.70;;;;;;;0.98;70.54;101381.22;5076732;28;20077;-41
2022/04/02 02:09:30;;;;;;;6.57;5.53;;;;;;;0.94;70.00;101384.06;5076685;28;20028;-42
2022/04/02 02:11:56;;;;;;;6.80;4.47;;;;;;;0.90;69.54;101392.34;5076636;28;20032;-41
2022/04/02 02:14:23;;;;;;;4.65;4.22;;;;;;;0.76;69.58;101388.88;5076706;28;20049;-41
2022/04/02 02:16:49;;;;;;;5.18;4.28;;;;;;;0.67;69.64;101371.03;5076284;28;20484;-40
2022/04/02 02:19:15;;;;;;;7.82;5.28;;;;;;;0.74;70.07;101395.22;5076451;28;20037;-40
2022/04/02 02:21:41;;;;;;;10.32;5.00;;;;;;;0.77;70.11;101397.66;5075061;28;20115;-42
2022/04/02 02:24:08;;;;;;;5.95;5.35;;;;;;;0.76;69.88;101398.59;5076213;28;20039;-42
2022/04/02 02:26:34;;;;;;;10.93;4.68;;;;;;;0.68;69.88;101401.75;5076369;28;20159;-40
2022/04/02 02:29:00;;;;;;;8.93;5.10;;;;;;;0.62;70.43;101404.84;5076129;28;20028;-41
2022/04/02 02:31:26;;;;;;;11.93;5.20;;;;;;;0.61;70.82;101402.31;5076234;28;20476;-42
2022/04/02 02:36:38;;;;;;;5.60;4.47;;;;;;;0.58;69.44;101393.63;5075431;28;20474;-41
2022/04/02 02:39:04;;;;;;;6.15;4.80;;;;;;;0.57;69.83;101399.84;5076120;28;20158;-40
2022/04/02 02:41:29;;;;;;;5.20;4.70;;;;;;;0.46;70.41;101391.81;5074912;28;20032;-40
2022/04/02 02:43:55;;;;;;;5.40;4.57;;;;;;;0.41;70.27;101395.72;5091764;28;20036;-41
2022/04/02 02:46:21;;;;;;;8.07;4.68;;;;;;;0.25;70.04;101359.81;5076148;28;20056;-41
2022/04/02 02:48:47;;;;;;;7.97;4.65;;;;;;;0.37;70.13;101388.03;5075962;28;20032;-44
2022/04/02 02:51:13;;;;;;;4.57;4.13;;;;;;;0.33;70.38;101388.34;5075868;28;20032;-41
2022/04/02 02:53:39;;;;;;;5.05;4.00;;;;;;;0.35;70.49;101386.44;5075930;28;20025;-42
2022/04/02 02:56:06;;;;;;;6.07;4.63;;;;;;;0.23;70.64;101360.88;5075275;28;20524;-42
2022/04/02 02:58:32;;;;;;;8.07;5.00;;;;;;;0.22;70.54;101367.09;5076134;28;20036;-41
2022/04/02 03:00:58;;;;;;;5.68;5.10;;;;;;;0.21;71.29;101386.53;5075061;28;20032;-42
2022/04/02 03:03:24;;;;;;;9.20;4.03;;;;;;;0.18;71.39;101361.16;5075594;28;20044;-42
2022/04/02 03:05:50;;;;;;;6.03;4.80;;;;;;;0.25;70.92;101370.38;5074505;28;20033;-41
2022/04/02 03:08:16;;;;;;;4.88;4.38;;;;;;;0.28;70.88;101371.94;5075442;28;20040;-40
2022/04/02 03:10:44;;;;;;;8.80;5.10;;;;;;;0.30;71.02;101375.34;5075403;28;20032;-40
2022/04/02 03:13:10;;;;;;;7.63;4.53;;;;;;;0.34;70.18;101374.19;5075408;28;20103;-42
2022/04/02 03:15:36;;;;;;;6.55;4.93;;;;;;;0.31;70.31;101372.59;5074601;28;20387;-40
2022/04/02 03:18:04;;;;;;;8.50;5.40;;;;;;;0.26;70.15;101376.50;5074073;28;20028;-40
2022/04/02 03:20:30;;;;;;;9.10;5.32;;;;;;;0.19;70.61;101376.91;5075520;28;20055;-40
2022/04/02 03:22:56;;;;;;;5.72;4.53;;;;;;;0.04;70.90;101351.56;5075504;28;20024;-41
2022/04/02 03:25:22;;;;;;;9.95;5.68;;;;;;;0.00;70.87;101360.63;5090619;28;20094;-41
2022/04/02 03:27:48;;;;;;;10.40;5.32;;;;;;;0.05;71.40;101373.50;5075216;28;20350;-41
2022/04/02 03:30:18;;;;;;;9.68;5.55;;;;;;;0.03;71.76;101378.06;5075264;28;20032;-41
2022/04/02 03:32:44;;;;;;;9.00;5.65;;;;;;;0.01;71.61;101374.69;5057357;28;20039;-43
2022/04/02 03:35:14;;;;;;;7.32;4.78;;;;;;;-0.06;70.92;101361.03;5074999;28;20078;-42
2022/04/02 03:37:41;;;;;;;8.50;5.93;;;;;;;0.03;71.72;101370.13;5073916;28;20377;-42
2022/04/02 03:40:09;;;;;;;7.45;5.80;;;;;;;-0.02;71.95;101367.78;5074828;28;20035;-43
2022/04/02 03:42:36;;;;;;;11.50;6.72;;;;;;;0.11;72.56;101373.97;5074946;28;20652;-42
2022/04/02 03:45:04;;;;;;;12.95;7.05;;;;;;;0.17;72.37;101383.25;5075349;28;20064;-42
2022/04/02 03:47:30;;;;;;;14.15;7.00;;;;;;;0.16;71.48;101381.56;5074687;28;20032;-41
2022/04/02 03:49:55;;;;;;;10.02;6.60;;;;;;;0.14;72.17;101370.25;5073504;28;20362;-41
2022/04/02 03:52:21;;;;;;;21.40;7.35;;;;;;;0.12;72.10;101364.22;5074308;28;20119;-40
2022/04/02 03:54:47;;;;;;;11.30;7.10;;;;;;;0.21;71.71;101383.91;5075013;28;20029;-41
2022/04/02 03:57:14;;;;;;;10.93;6.60;;;;;;;0.17;71.99;101383.25;5074016;28;20496;-41
2022/04/02 03:59:41;;;;;;;9.60;6.60;;;;;;;0.11;72.16;101381.88;5073055;28;20503;-41
2022/04/02 04:02:07;;;;;;;12.45;6.63;;;;;;;0.10;72.00;101381.97;5056843;28;20025;-41
2022/04/02 04:04:33;;;;;;;13.32;7.38;;;;;;;0.08;72.42;101378.59;5074316;28;20032;-41
2022/04/02 04:07:00;;;;;;;9.00;7.63;;;;;;;0.11;72.61;101386.28;5074813;28;20024;-41
2022/04/02 04:09:25;;;;;;;8.30;6.30;;;;;;;0.08;72.28;101379.44;5074201;28;20029;-41
2022/04/02 04:11:52;;;;;;;6.93;5.97;;;;;;;0.08;72.33;101387.34;5074010;28;20039;-41
2022/04/02 04:14:19;;;;;;;7.60;6.75;;;;;;;0.05;72.26;101384.91;5073805;28;20077;-41
2022/04/02 04:16:46;;;;;;;10.65;7.03;;;;;;;0.02;71.98;101382.50;5073145;28;20032;-41
2022/04/02 04:19:12;;;;;;;8.45;7.50;;;;;;;-0.07;72.51;101364.63;5074182;28;20032;-41
2022/04/02 04:21:38;;;;;;;10.30;8.27;;;;;;;-0.04;73.63;101378.47;5074128;28;20346;-41
2022/04/02 04:24:04;;;;;;;12.38;8.10;;;;;;;-0.04;73.55;101380.25;5073960;28;20032;-41
2022/04/02 04:26:30;;;;;;;8.38;7.03;;;;;;;-0.07;73.08;101385.75;5072763;28;20028;-41
2022/04/02 04:28:56;;;;;;;21.40;9.48;;;;;;;-0.09;73.21;101388.50;5072807;28;20046;-41
2022/04/02 04:31:22;;;;;;;12.32;8.50;;;;;;;-0.08;73.56;101384.03;5089818;28;20082;-41
2022/04/02 04:33:49;;;;;;;10.07;8.13;;;;;;;-0.14;73.94;101387.09;5073641;28;20036;-40
2022/04/02 04:36:16;;;;;;;10.00;7.45;;;;;;;-0.22;73.38;101385.81;5073995;28;20102;-42
2022/04/02 04:38:43;;;;;;;13.10;7.38;;;;;;;-0.25;72.88;101391.28;5089265;28;20067;-40
2022/04/02 04:41:08;;;;;;;9.27;7.38;;;;;;;-0.43;73.70;101372.22;5074260;28;20116;-41
2022/04/02 04:43:35;;;;;;;15.07;7.20;;;;;;;-0.34;74.23;101385.75;5074106;28;20453;-40
2022/04/02 04:46:03;;;;;;;10.77;7.43;;;;;;;-0.41;73.60;101388.81;5072470;28;20024;-40
2022/04/02 04:48:29;;;;;;;11.07;7.55;;;;;;;-0.53;74.23;101386.94;5073968;28;20516;-42
2022/04/02 04:50:55;;;;;;;8.18;6.95;;;;;;;-0.53;74.08;101389.59;5074234;28;20369;-44
2022/04/02 04:53:21;;;;;;;9.35;7.82;;;;;;;-0.59;74.77;101385.56;5073698;28;20461;-41
2022/04/02 04:55:47;;;;;;;11.38;8.65;;;;;;;-0.69;74.58;101375.69;5072471;28;20052;-41
2022/04/02 04:58:13;;;;;;;10.13;8.25;;;;;;;-0.64;74.38;101395.56;5073744;28;20052;-41
2022/04/02 05:00:41;;;;;;;15.18;8.30;;;;;;;-0.69;75.17;101399.44;5073853;28;20034;-41
2022/04/02 05:03:08;;;;;;;12.18;8.13;;;;;;;-0.87;76.51;101398.81;5073967;28;20035;-40
2022/04/02 05:05:38;;;;;;;11.73;7.28;;;;;;;-0.92;76.15;101399.09;5090123;28;20123;-41
2022/04/02 05:08:05;;;;;;;10.30;7.75;;;;;;;-0.85;75.47;101410.13;5074733;28;20032;-41
2022/04/02 05:10:31;;;;;;;11.23;8.05;;;;;;;-0.85;75.56;101418.03;5072409;28;20031;-41
2022/04/02 05:12:57;;;;;;;10.95;8.30;;;;;;;-0.84;75.11;101412.63;5073420;28;20090;-43
2022/04/02 05:15:23;;;;;;;10.70;8.02;;;;;;;-0.80;74.54;101422.06;5074112;28;20384;-41
2022/04/02 05:17:49;;;;;;;14.27;8.77;;;;;;;-0.89;75.27;101429.69;5073490;28;20039;-43
2022/04/02 05:20:15;;;;;;;15.98;9.23;;;;;;;-0.96;76.19;101423.13;5073538;28;20029;-41
2022/04/02 05:22:41;;;;;;;10.68;7.72;;;;;;;-0.96;75.27;101418.69;5073757;28;20028;-41
2022/04/02 05:25:08;;;;;;;16.83;10.35;;;;;;;-0.92;74.54;101427.25;5074548;28;20041;-41
2022/04/02 05:27:34;;;;;;;15.82;10.98;;;;;;;-0.93;74.56;101428.19;5078768;28;20032;-41
2022/04/02 05:30:01;;;;;;;14.55;9.25;;;;;;;-0.86;74.40;101440.88;5078877;28;20081;-41
2022/04/02 05:32:28;;;;;;;15.65;9.15;;;;;;;-0.86;74.35;101429.50;5078864;28;20534;-41
2022/04/02 05:34:54;;;;;;;12.45;8.05;;;;;;;-0.84;74.68;101435.53;5061005;28;20121;-41
2022/04/02 05:37:20;;;;;;;11.88;8.60;;;;;;;-0.84;74.33;101436.38;5078509;28;20043;-41
2022/04/02 05:39:46;;;;;;;10.20;8.30;;;;;;;-0.90;74.79;101443.84;5078917;28;20037;-41
2022/04/02 05:42:12;;;;;;;11.48;7.90;;;;;;;-1.00;74.75;101435.66;5078791;28;20056;-40
2022/04/02 05:44:39;;;;;;;10.20;8.30;;;;;;;-0.95;74.45;101444.09;5078709;28;20115;-42
2022/04/02 05:47:06;;;;;;;9.57;8.38;;;;;;;-0.92;74.10;101451.81;5078563;28;20029;-41
2022/04/02 05:49:32;;;;;;;15.60;8.73;;;;;;;-0.95;75.02;101456.44;5076723;28;20035;-42
2022/04/02 05:51:58;;;;;;;9.82;7.53;;;;;;;-1.02;74.83;101443.66;5078370;28;20325;-40
2022/04/02 05:54:24;;;;;;;12.88;9.07;;;;;;;-1.03;74.90;101446.38;5077839;28;20071;-40
2022/04/02 05:56:50;;;;;;;14.40;9.93;;;;;;;-1.08;75.21;101440.53;5077946;28;20048;-41
2022/04/02 05:59:16;;;;;;;9.07;7.85;;;;;;;-1.05;75.03;101454.38;5078780;28;20036;-41
2022/04/02 06:01:42;;;;;;;13.38;8.35;;;;;;;-1.00;75.40;101449.66;5077511;28;20077;-44
2022/04/02 06:04:09;;;;;;;16.77;9.02;;;;;;;-1.03;74.75;101449.84;5077328;28;20407;-42
2022/04/02 06:06:36;;;;;;;18.33;9.50;;;;;;;-0.95;75.43;101461.72;5078937;28;20024;-41
2022/04/02 06:09:02;;;;;;;11.88;8.57;;;;;;;-0.92;74.79;101451.00;5077867;28;20081;-42
2022/04/02 06:11:29;;;;;;;10.85;8.57;;;;;;;-0.87;74.89;101460.31;5076840;28;20482;-41
2022/04/02 06:13:55;;;;;;;12.38;9.77;;;;;;;-0.81;74.44;101464.34;5078182;28;20385;-43
2022/04/02 06:16:21;;;;;;;14.25;9.93;;;;;;;-0.86;75.41;101458.50;5076982;28;20037;-43
2022/04/02 06:18:46;;;;;;;14.98;10.35;;;;;;;-0.84;75.33;101456.63;5076966;28;20469;-42
2022/04/02 06:21:12;;;;;;;14.13;9.30;;;;;;;-0.79;75.03;101465.09;5092696;28;20120;-44
2022/04/02 06:23:38;;;;;;;13.30;9.00;;;;;;;-0.82;74.63;101455.59;5077746;28;20025;-44
2022/04/02 06:26:04;;;;;;;11.40;8.45;;;;;;;-0.75;74.85;101471.03;5076992;28;20082;-44
2022/04/02 06:28:30;;;;;;;12.75;8.63;;;;;;;-0.84;74.58;101468.00;5076103;28;20040;-42
2022/04/02 06:30:56;;;;;;;10.98;8.82;;;;;;;-0.74;75.55;101470.94;5075507;28;20034;-44
2022/04/02 06:33:22;;;;;;;11.77;8.55;;;;;;;-0.73;74.37;101474.41;5076899;28;20068;-43
2022/04/02 06:35:48;;;;;;;10.75;8.70;;;;;;;-0.78;75.20;101474.69;5076124;28;20024;-41
2022/04/02 06:38:14;;;;;;;11.25;9.18;;;;;;;-0.73;74.46;101475.25;5075186;28;20047;-44
2022/04/02 06:40:39;;;;;;;13.27;9.93;;;;;;;-0.60;74.18;101489.38;5076359;28;20029;-42
2022/04/02 06:43:06;;;;;;;12.05;8.55;;;;;;;-0.65;74.69;101477.41;5076369;28;20478;-44
2022/04/02 06:45:32;;;;;;;15.23;10.02;;;;;;;-0.46;75.21;101501.72;5077098;28;20021;-44
2022/04/02 06:47:57;;;;;;;13.73;9.93;;;;;;;-0.18;75.06;101504.41;5092043;28;20024;-42
2022/04/02 06:50:23;;;;;;;16.42;10.77;;;;;;;-0.18;74.90;101515.81;5074975;28;20480;-41
2022/04/02 06:52:50;;;;;;;17.00;10.18;;;;;;;-0.17;74.63;101516.66;5076147;28;20032;-41
2022/04/02 06:55:16;;;;;;;13.52;9.68;;;;;;;-0.28;74.20;101496.19;5091751;28;20519;-41
2022/04/02 06:57:45;;;;;;;13.38;9.27;;;;;;;-0.13;73.85;101515.50;5075400;28;20056;-42
2022/04/02 07:00:11;;;;;;;12.65;9.00;;;;;;;-0.08;73.90;101523.97;5076909;28;20068;-41
2022/04/02 07:02:38;;;;;;;12.18;8.25;;;;;;;-0.03;74.29;101517.44;5074887;28;20039;-43
2022/04/02 07:05:05;;;;;;;11.90;9.55;;;;;;;-0.06;74.44;101511.53;5075808;28;20052;-42
2022/04/02 07:07:31;;;;;;;15.10;9.57;;;;;;;-0.02;74.83;101516.53;5091549;28;20024;-44
2022/04/02 07:09:57;;;;;;;12.05;10.00;;;;;;;-0.06;75.01;101507.06;5076082;28;20055;-42
2022/04/02 07:12:23;;;;;;;16.55;9.98;;;;;;;0.18;75.27;101522.28;5074697;28;20029;-41
2022/04/02 07:14:49;;;;;;;16.95;10.00;;;;;;;0.26;75.18;101527.06;5075659;28;20035;-41
2022/04/02 07:17:14;;;;;;;15.52;10.07;;;;;;;0.29;75.11;101532.16;5074980;28;20064;-42
2022/04/02 07:19:41;;;;;;;15.60;9.40;;;;;;;0.37;74.70;101543.06;5075677;28;20033;-41
2022/04/02 07:22:09;;;;;;;12.80;9.43;;;;;;;0.38;75.18;101540.31;5075640;28;20033;-42
2022/04/02 07:24:38;;;;;;;11.98;9.65;;;;;;;0.44;73.97;101546.16;5076015;28;20025;-41
2022/04/02 07:27:05;;;;;;;12.63;8.98;;;;;;;0.48;74.86;101542.34;5076010;28;20373;-41
2022/04/02 07:29:32;;;;;;;14.50;9.35;;;;;;;0.52;75.05;101546.47;5075853;28;20035;-42
2022/04/02 07:31:58;;;;;;;12.88;9.80;;;;;;;0.59;74.40;101547.78;5076487;28;20036;-42
2022/04/02 07:34:24;;;;;;;11.60;9.45;;;;;;;0.63;74.56;101553.72;5075211;28;20457;-41
2022/04/02 07:37:05;;;;;;;11.70;7.90;;;;;;;0.64;74.44;101553.59;5075627;28;20021;-44
2022/04/02 07:39:44;;;;;;;16.52;8.90;;;;;;;0.56;75.21;101555.94;5075147;28;20096;-40
2022/04/02 07:42:35;;;;;;;13.70;9.20;;;;;;;0.56;74.82;101556.75;5074902;28;20135;-41
2022/04/02 07:45:06;;;;;;;11.10;8.07;;;;;;;0.64;74.52;101566.00;5074561;28;20073;-41
2022/04/02 07:47:35;;;;;;;10.95;8.80;;;;;;;0.60;74.65;101541.56;5075036;28;20079;-42
2022/04/02 07:50:09;;;;;;;14.05;9.52;;;;;;;0.77;74.11;101562.41;5074846;28;20092;-40
2022/04/02 07:52:36;;;;;;;12.32;9.00;;;;;;;0.80;74.68;101558.72;5075613;28;20361;-40
2022/04/02 07:55:06;;;;;;;14.15;9.57;;;;;;;0.87;74.57;101557.34;5091083;28;20434;-42
2022/04/02 07:57:41;;;;;;;11.77;9.13;;;;;;;0.91;74.97;101552.69;5074452;28;20052;-42
2022/04/02 08:00:10;;;;;;;16.25;9.60;;;;;;;0.96;74.75;101564.66;5074810;28;20032;-41
2022/04/02 08:02:38;;;;;;;11.30;9.20;;;;;;;1.06;74.49;101564.03;5073281;28;20481;-42
2022/04/02 08:05:07;;;;;;;13.82;9.50;;;;;;;1.10;74.41;101561.09;5074308;28;20465;-41
2022/04/02 08:07:35;;;;;;;15.55;9.02;;;;;;;1.22;74.14;101574.41;5073842;28;20029;-41
2022/04/02 08:10:06;;;;;;;20.13;10.07;;;;;;;1.31;74.11;101571.13;5074963;28;20039;-42
2022/04/02 08:12:35;;;;;;;11.52;8.65;;;;;;;1.36;74.48;101566.38;5073465;28;20025;-42
2022/04/02 08:15:07;;;;;;;12.23;8.00;;;;;;;1.46;73.62;101578.00;5073990;28;20032;-42
2022/04/02 08:17:33;;;;;;;11.52;8.60;;;;;;;1.52;74.29;101576.72;5075724;28;20024;-42
2022/04/02 08:20:01;;;;;;;8.07;7.20;;;;;;;1.59;74.23;101579.81;5075221;28;20115;-42
2022/04/02 08:22:27;;;;;;;14.32;9.48;;;;;;;1.58;73.93;101557.78;5072647;28;20539;-42
2022/04/02 08:24:55;;;;;;;10.90;8.77;;;;;;;1.63;73.79;101552.16;5075061;28;20043;-41
2022/04/02 08:27:33;;;;;;;12.98;8.30;;;;;;;1.84;73.77;101577.13;5091000;28;20056;-42
2022/04/02 08:30:23;;;;;;;9.52;7.25;;;;;;;1.94;73.38;101575.50;5074442;28;20123;-42
2022/04/02 08:33:28;;;;;;;11.52;7.18;;;;;;;2.05;73.59;101566.78;5073879;28;20039;-41
2022/04/02 08:36:27;;;;;;;9.40;6.95;;;;;;;2.25;73.17;101575.09;5074377;28;20067;-43
2022/04/02 08:39:09;;;;;;;8.75;7.07;;;;;;;2.29;73.62;101565.97;5073998;28;20103;-42
2022/04/02 08:42:13;;;;;;;15.63;7.57;;;;;;;2.46;72.83;101575.31;5073183;28;20052;-41
2022/04/02 08:45:08;;;;;;;7.43;5.70;;;;;;;2.60;73.00;101582.22;5059497;28;20495;-43
2022/04/02 08:48:13;;;;;;;6.82;6.15;;;;;;;2.74;72.86;101584.72;5060739;28;20032;-41
2022/04/02 08:50:48;;;;;;;12.40;5.60;;;;;;;2.84;72.40;101576.91;5075692;28;20031;-42
2022/04/02 08:53:26;;;;;;;6.90;6.00;;;;;;;3.02;71.98;101583.47;5073928;28;20032;-42
2022/04/02 08:56:02;;;;;;;9.95;5.50;;;;;;;3.27;72.01;101586.91;5073710;28;20118;-42
2022/04/02 08:58:56;;;;;;;12.35;5.85;;;;;;;3.45;70.77;101593.44;5073921;28;20052;-41
2022/04/02 09:01:27;;;;;;;6.97;5.60;;;;;;;3.53;70.77;101586.69;5073108;28;20024;-45
2022/04/02 09:04:32;;;;;;;7.78;5.35;;;;;;;3.64;69.50;101590.19;5072781;28;20029;-43
2022/04/02 09:07:39;;;;;;;12.03;5.27;;;;;;;3.82;69.26;101592.34;5061353;28;20040;-42
2022/04/02 09:10:13;;;;;;;;;;;;;;;3.98;68.13;101590.19;5076596;28;20345;-42
2022/04/02 09:13:05;;;;;;;6.78;4.25;;;;;;;4.11;67.64;101581.22;5072368;28;19919;-42
2022/04/02 09:16:05;;;;;;;8.57;4.95;;;;;;;4.43;66.86;101592.72;5072815;28;20115;-45
2022/04/02 09:18:38;;;;;;;6.75;4.55;;;;;;;4.67;66.50;101582.88;5073923;28;20032;-44
2022/04/02 09:21:29;;;;;;;11.10;4.70;;;;;;;4.97;65.17;101584.78;5073944;28;20025;-45
2022/04/02 09:24:08;;;;;;;8.82;5.88;;;;;;;6.48;62.26;101575.16;5088976;28;20068;-43
2022/04/02 09:27:10;;;;;;;6.30;4.28;;;;;;;8.97;55.02;101579.88;5072168;28;20374;-44
2022/04/02 09:29:52;;;;;;;5.22;3.53;;;;;;;10.48;50.48;101582.97;5060396;28;20036;-43
2022/04/02 09:32:56;;;;;;;8.35;3.00;;;;;;;11.68;46.82;101591.28;5072082;28;20111;-42
2022/04/02 09:36:01;;;;;;;3.30;1.90;;;;;;;13.01;44.64;101576.84;5073734;28;20047;-42
2022/04/02 09:39:07;;;;;;;5.20;2.33;;;;;;;13.43;41.31;101582.72;5044344;28;20032;-45
2022/04/02 09:42:03;;;;;;;4.05;2.00;;;;;;;13.92;39.34;101558.69;5075765;28;20032;-43
2022/04/02 09:44:58;;;;;;;3.65;2.00;;;;;;;13.72;39.86;101577.34;5072366;28;20365;-42
2022/04/02 09:47:50;;;;;;;2.05;1.60;;;;;;;13.41;40.68;101577.53;5072776;28;20056;-44
2022/04/02 09:50:20;;;;;;;6.10;1.85;;;;;;;14.54;40.48;101575.38;5072477;28;20131;-38
2022/04/02 09:52:52;;;;;;;5.60;2.03;;;;;;;15.14;39.49;101564.28;5073011;28;20090;-44
2022/04/02 09:55:41;;;;;;;3.05;1.85;;;;;;;16.08;35.56;101579.22;5071987;28;20033;-42
2022/04/02 09:58:40;;;;;;;3.05;1.90;;;;;;;16.97;34.44;101561.88;5058537;28;20051;-42
2022/04/02 10:01:09;;;;;;;4.10;1.80;;;;;;;17.52;34.12;101554.28;5072355;28;20032;-42
2022/04/02 10:03:57;;;;;;;2.00;1.30;;;;;;;18.84;31.79;101553.84;5071726;28;20108;-41
2022/04/02 10:06:26;;;;;;;2.50;1.35;;;;;;;19.48;32.57;101549.06;5073728;28;20036;-41
2022/04/02 10:09:12;;;;;;;1.75;1.30;;;;;;;19.48;28.45;101545.47;5073437;28;20035;-42
2022/04/02 10:11:47;;;;;;;2.78;1.48;;;;;;;20.29;28.86;101544.28;5073157;28;20033;-41
2022/04/02 10:14:19;;;;;;;1.83;1.30;;;;;;;20.31;27.25;101544.88;5076535;28;20039;-41
2022/04/02 10:16:50;;;;;;;4.82;1.60;;;;;;;20.65;28.99;101537.06;5076799;28;20021;-42
2022/04/02 10:19:17;;;;;;;3.47;1.13;;;;;;;21.48;28.91;101536.25;5076078;28;20039;-44
2022/04/02 10:21:50;;;;;;;2.20;1.25;;;;;;;19.92;27.26;101541.63;5058988;28;20036;-44
2022/04/02 10:24:25;;;;;;;2.50;1.00;;;;;;;19.66;27.28;101528.31;5076835;28;20101;-41
2022/04/02 10:26:54;;;;;;;4.18;1.05;;;;;;;20.94;26.78;101534.47;5076802;28;20032;-44
2022/04/02 10:29:45;;;;;;;2.58;0.82;;;;;;;18.19;26.70;101543.16;5076459;28;20481;-41
2022/04/02 10:32:31;;;;;;;2.35;0.90;;;;;;;16.77;29.50;101542.84;5075617;28;20028;-43
2022/04/02 10:35:13;;;;;;;3.47;0.80;;;;;;;15.54;30.21;101551.84;5076963;28;20423;-42
2022/04/02 10:37:42;;;;;;;1.50;0.82;;;;;;;14.06;32.05;101538.09;5058499;28;20036;-40
2022/04/02 10:40:12;;;;;;;2.38;1.00;;;;;;;13.43;35.17;101545.78;5075319;28;20036;-43
2022/04/02 10:42:50;;;;;;;1.60;0.75;;;;;;;16.87;30.58;101543.31;5075899;28;20020;-42
2022/04/02 10:45:21;;;;;;;2.67;0.70;;;;;;;17.37;29.49;101534.69;5076079;28;20036;-41
2022/04/02 10:47:57;;;;;;;2.33;0.80;;;;;;;14.77;30.25;101541.94;5077578;28;20033;-43
2022/04/02 10:50:25;;;;;;;4.53;0.90;;;;;;;14.06;34.11;101550.72;5077087;28;20028;-40
2022/04/02 10:52:51;;;;;;;1.95;0.70;;;;;;;17.57;29.05;101537.38;5093087;28;20032;-45
2022/04/02 10:55:22;;;;;;;1.90;0.77;;;;;;;18.62;27.27;101522.59;5077084;28;20036;-40
2022/04/02 10:57:49;;;;;;;1.23;0.75;;;;;;;18.04;25.83;101526.31;5077438;28;20052;-41
2022/04/02 11:00:17;;;;;;;1.50;0.52;;;;;;;18.78;27.06;101500.28;5093086;28;20056;-41
2022/04/02 11:02:46;;;;;;;2.25;0.50;;;;;;;19.96;23.49;101525.63;5092422;28;20028;-42
2022/04/02 11:05:14;;;;;;;1.55;0.75;;;;;;;20.64;25.43;101519.00;5092877;28;20114;-41
2022/04/02 11:07:44;;;;;;;3.08;0.80;;;;;;;20.92;24.02;101525.69;5093878;28;20028;-42
2022/04/02 11:10:16;;;;;;;0.88;0.65;;;;;;;21.08;23.74;101510.50;5093629;28;20039;-42
2022/04/02 11:12:45;;;;;;;2.95;0.70;;;;;;;21.51;22.13;101514.75;5077572;28;20039;-42
2022/04/02 11:15:16;;;;;;;1.48;0.50;;;;;;;23.00;21.30;101503.75;5075076;28;20028;-41
2022/04/02 11:17:46;;;;;;;1.95;0.70;;;;;;;22.63;21.68;101508.91;5076200;28;20085;-42
2022/04/02 11:20:15;;;;;;;3.35;0.60;;;;;;;23.17;21.41;101498.25;5076267;28;20029;-43
2022/04/02 11:22:49;;;;;;;0.50;0.40;;;;;;;24.10;18.04;101512.00;5075471;28;20031;-42
2022/04/02 11:25:39;;;;;;;0.80;0.40;;;;;;;23.23;18.62;101499.97;5076320;28;20044;-41
2022/04/02 11:28:14;;;;;;;1.05;0.57;;;;;;;22.96;17.82;101506.16;5077446;28;20033;-42
2022/04/02 11:30:46;;;;;;;3.17;0.60;;;;;;;23.13;18.82;101502.59;5076494;28;20051;-42
2022/04/02 11:33:18;;;;;;;2.53;0.60;;;;;;;22.90;19.69;101501.69;5076599;28;20039;-40
2022/04/02 11:35:51;;;;;;;1.95;0.88;;;;;;;24.07;19.51;101496.09;5075433;28;20053;-40
2022/04/02 11:38:31;;;;;;;1.80;0.88;;;;;;;24.21;17.28;101501.97;5076366;28;20028;-40
2022/04/02 11:41:34;;;;;;;0.98;0.60;;;;;;;24.62;17.17;101493.28;5075577;28;20025;-40
2022/04/02 11:44:08;;;;;;;1.17;0.90;;;;;;;25.28;19.30;101490.19;5063064;28;20036;-40